Portada
METAR-TAF:

METAR-TAF

Aeroports :

Isbell Field

Fort Payne, Alabama, Estats Units d'Amèrica

latitud: 34-28-25N, longitud: 085-43-17W, altitud: 267 m

Observació

L'informe es va fer fa 24 minuts, a les 07:55 UTC
Vent calma
Temperatura 15°C
Humitat 48%
Pressió 1022 hPa
Visibilitat: 16.1 km
Cel clar

METAR: K4A9 300755Z AUTO 00000KT 10SM CLR 15/04 A3017 RMK AO2 T01540038

Hora: 03:19 (08:19 UTC)


TAF: manca

Observacions i pronòstics meteorològics de més de 4000 aeroports (METAR i TAF).

Les estacions disponibles són els punts grocs i vermells al mapa.

Posi el ratolí al punt desitjat per veure el nom de l'estació.

Feu clic per veure les observacions i els pronòstics meteorològics.

Per canviar el mapa: feu clic els botons verds amb una creu de color negre per apropar; al botó verd amb un guió per allunyar la imatge; o en les fletxes verdes per a mapes adjacents.


METAR-TAF: